createdAt,value
2023-05-19T00:01:04.855Z,23.19
2023-05-19T00:03:31.399Z,23.18
2023-05-19T00:05:58.149Z,23.13
2023-05-19T00:08:24.699Z,23.12
2023-05-19T00:10:51.340Z,23.15
2023-05-19T00:13:17.892Z,23.18
2023-05-19T00:15:44.571Z,23.14
2023-05-19T00:18:11.283Z,23.16
2023-05-19T00:20:37.914Z,23.11
2023-05-19T00:23:04.519Z,23.16
2023-05-19T00:25:31.074Z,23.14
2023-05-19T00:27:57.637Z,23.12
2023-05-19T00:30:24.184Z,23.14
2023-05-19T00:32:50.860Z,23.12
2023-05-19T00:35:17.520Z,23.10
2023-05-19T00:37:44.150Z,23.12
2023-05-19T00:40:10.679Z,23.15
2023-05-19T00:42:37.371Z,23.15
2023-05-19T00:45:04.034Z,23.11
2023-05-19T00:47:30.540Z,23.13
2023-05-19T00:49:57.150Z,23.09
2023-05-19T00:52:23.752Z,23.15
2023-05-19T00:54:50.350Z,23.16
2023-05-19T00:57:16.881Z,23.14
2023-05-19T00:59:43.410Z,23.10
2023-05-19T01:02:10.010Z,23.16
2023-05-19T01:04:36.537Z,23.15
2023-05-19T01:07:03.071Z,23.13
2023-05-19T01:09:29.663Z,23.17
2023-05-19T01:11:56.237Z,23.16
2023-05-19T01:14:22.805Z,23.14
2023-05-19T01:16:49.463Z,23.14
2023-05-19T01:19:16.176Z,23.11
2023-05-19T01:21:42.761Z,23.18
2023-05-19T01:24:09.326Z,23.13
2023-05-19T01:26:35.923Z,23.12
2023-05-19T01:29:03.510Z,23.15
2023-05-19T01:31:30.052Z,23.17
2023-05-19T01:33:56.634Z,23.17
2023-05-19T01:36:23.250Z,23.17
2023-05-19T01:38:49.833Z,23.14
2023-05-19T01:41:16.425Z,23.19
2023-05-19T01:43:42.958Z,23.17
2023-05-19T01:46:09.645Z,23.08
2023-05-19T01:48:36.279Z,23.12
2023-05-19T01:51:02.845Z,23.12
2023-05-19T01:53:29.503Z,23.11
2023-05-19T01:55:56.097Z,23.08
2023-05-19T01:58:22.550Z,23.08
2023-05-19T02:00:49.191Z,23.08
2023-05-19T02:03:15.711Z,23.12
2023-05-19T02:05:42.232Z,23.08
2023-05-19T02:08:08.761Z,23.07
2023-05-19T02:10:35.356Z,23.09
2023-05-19T02:13:01.855Z,23.11
2023-05-19T02:15:28.427Z,23.09
2023-05-19T02:17:55.052Z,23.06
2023-05-19T02:20:21.643Z,23.10
2023-05-19T02:22:48.206Z,23.10
2023-05-19T02:25:14.776Z,23.04
2023-05-19T02:27:41.352Z,23.05
2023-05-19T02:30:07.955Z,23.07
2023-05-19T02:32:34.521Z,23.04
2023-05-19T02:35:01.158Z,23.09
2023-05-19T02:37:27.703Z,23.07
2023-05-19T02:39:54.279Z,23.05
2023-05-19T02:42:20.876Z,23.07
2023-05-19T02:44:47.445Z,23.08
2023-05-19T02:47:14.061Z,23.07
2023-05-19T02:49:40.731Z,23.10
2023-05-19T02:52:07.257Z,23.07
2023-05-19T02:54:33.803Z,23.04
2023-05-19T02:57:00.381Z,23.08
2023-05-19T02:59:26.967Z,23.09
2023-05-19T03:01:53.534Z,23.11
2023-05-19T03:04:20.045Z,23.07
2023-05-19T03:06:46.560Z,23.04
2023-05-19T03:09:13.089Z,23.13
2023-05-19T03:11:39.734Z,23.09
2023-05-19T03:14:06.300Z,23.08
2023-05-19T03:16:32.835Z,23.08
2023-05-19T03:18:59.490Z,23.06
2023-05-19T03:21:26.109Z,23.07
2023-05-19T03:23:52.654Z,23.04
2023-05-19T03:26:19.160Z,23.08
2023-05-19T03:28:45.709Z,23.01
2023-05-19T03:31:12.253Z,23.08
2023-05-19T03:33:39.027Z,23.06
2023-05-19T03:36:05.632Z,23.06
2023-05-19T03:38:32.139Z,23.04
2023-05-19T03:40:58.790Z,23.09
2023-05-19T03:43:25.302Z,23.08
2023-05-19T03:45:51.822Z,23.07
2023-05-19T03:48:21.099Z,23.09
2023-05-19T03:50:47.932Z,23.03
2023-05-19T03:53:14.535Z,23.11
2023-05-19T03:55:41.176Z,23.11
2023-05-19T03:58:07.713Z,23.04
2023-05-19T04:00:34.471Z,23.09
2023-05-19T04:03:01.533Z,23.05
2023-05-19T04:05:28.252Z,23.04
2023-05-19T04:07:54.977Z,22.94
2023-05-19T04:10:21.563Z,22.95
2023-05-19T04:12:48.147Z,22.93
2023-05-19T04:15:14.675Z,22.97
2023-05-19T04:17:41.206Z,22.94
2023-05-19T04:20:07.780Z,22.98
2023-05-19T04:22:34.364Z,22.98
2023-05-19T04:25:00.887Z,22.95
2023-05-19T04:27:27.423Z,22.95
2023-05-19T04:29:53.953Z,22.94
2023-05-19T04:32:20.526Z,23.01
2023-05-19T04:34:47.110Z,22.99
2023-05-19T04:37:13.635Z,22.94
2023-05-19T04:39:40.184Z,22.98
2023-05-19T04:42:06.713Z,23.00
2023-05-19T04:44:33.305Z,23.00
2023-05-19T04:46:59.884Z,23.01
2023-05-19T04:49:26.442Z,23.00
2023-05-19T04:51:55.593Z,23.03
2023-05-19T04:54:22.501Z,23.13
2023-05-19T04:56:49.017Z,23.06
2023-05-19T04:59:15.559Z,23.15
2023-05-19T05:01:42.152Z,23.26
2023-05-19T05:04:08.711Z,23.38
2023-05-19T05:06:35.390Z,23.43
2023-05-19T05:09:01.975Z,23.41
2023-05-19T05:11:28.588Z,23.42
2023-05-19T05:13:55.183Z,23.23
2023-05-19T05:16:21.726Z,23.22
2023-05-19T05:18:48.426Z,23.21
2023-05-19T05:21:14.979Z,23.23
2023-05-19T05:23:44.251Z,23.20
2023-05-19T05:26:13.849Z,23.34
2023-05-19T05:28:40.431Z,23.33
2023-05-19T05:31:07.097Z,23.33
2023-05-19T05:33:33.724Z,23.33
2023-05-19T05:36:00.307Z,23.38
2023-05-19T05:38:26.838Z,23.44
2023-05-19T05:40:53.362Z,23.44
2023-05-19T05:43:19.880Z,23.41
2023-05-19T05:45:46.396Z,23.37
2023-05-19T05:48:12.986Z,23.41
2023-05-19T05:50:39.534Z,23.46
2023-05-19T05:53:06.008Z,23.41
2023-05-19T05:55:32.588Z,23.48
2023-05-19T05:57:59.247Z,23.43
2023-05-19T06:00:25.812Z,23.40
2023-05-19T06:02:52.454Z,23.40
2023-05-19T06:05:19.082Z,23.36
2023-05-19T06:07:45.584Z,23.34
2023-05-19T06:10:12.039Z,23.41
2023-05-19T06:12:38.591Z,23.43
2023-05-19T06:15:05.189Z,23.38
2023-05-19T06:17:31.789Z,23.45
2023-05-19T06:19:58.292Z,23.39
2023-05-19T06:22:24.745Z,23.36
2023-05-19T06:24:51.182Z,23.35
2023-05-19T06:27:17.666Z,23.47
2023-05-19T06:29:44.164Z,23.48
2023-05-19T06:32:10.611Z,23.48
2023-05-19T06:34:40.039Z,23.48
2023-05-19T06:37:06.595Z,23.47
2023-05-19T06:39:33.127Z,23.48
2023-05-19T06:41:59.694Z,23.55
2023-05-19T06:44:26.190Z,23.54
2023-05-19T06:46:52.814Z,23.54
2023-05-19T06:49:19.372Z,23.53
2023-05-19T06:51:45.818Z,23.49
2023-05-19T06:54:12.347Z,23.56
2023-05-19T06:56:38.893Z,23.53
2023-05-19T06:59:05.519Z,23.55
2023-05-19T07:01:32.116Z,23.47
2023-05-19T07:03:58.770Z,23.51
2023-05-19T07:06:25.309Z,23.50
2023-05-19T07:08:51.827Z,23.52
2023-05-19T07:11:22.113Z,23.53
2023-05-19T07:13:48.637Z,23.54
2023-05-19T07:16:15.258Z,23.56
2023-05-19T07:18:41.818Z,23.50
2023-05-19T07:21:08.469Z,23.52
2023-05-19T07:23:34.980Z,23.58
2023-05-19T07:26:01.446Z,23.58
2023-05-19T07:28:27.967Z,23.51
2023-05-19T07:30:54.525Z,23.57
2023-05-19T07:33:21.055Z,23.54
2023-05-19T07:35:47.625Z,23.59
2023-05-19T07:38:14.182Z,23.68
2023-05-19T07:40:40.762Z,23.55
2023-05-19T07:43:07.379Z,23.60
2023-05-19T07:45:34.057Z,23.61
2023-05-19T07:48:01.549Z,23.48
2023-05-19T07:50:28.078Z,23.55
2023-05-19T07:52:54.576Z,23.50
2023-05-19T07:55:21.125Z,23.35
2023-05-19T07:57:47.711Z,23.36
2023-05-19T08:00:14.285Z,23.20
2023-05-19T08:02:40.860Z,22.82
2023-05-19T08:05:07.470Z,22.99
2023-05-19T08:07:33.963Z,22.92
2023-05-19T08:10:00.698Z,22.88
2023-05-19T08:12:27.296Z,22.72
2023-05-19T08:14:53.816Z,22.86
2023-05-19T08:17:20.320Z,22.98
2023-05-19T08:19:46.885Z,23.06
2023-05-19T08:22:13.377Z,22.93
2023-05-19T08:24:39.929Z,22.88
2023-05-19T08:27:06.465Z,22.79
2023-05-19T08:29:32.920Z,22.80
2023-05-19T08:31:59.492Z,22.85
2023-05-19T08:34:26.106Z,22.84
2023-05-19T08:36:52.644Z,22.96
2023-05-19T08:39:19.187Z,22.63
2023-05-19T08:41:45.750Z,22.76
2023-05-19T08:44:12.295Z,22.78
2023-05-19T08:46:38.914Z,22.95
2023-05-19T08:49:05.442Z,22.65
2023-05-19T08:51:32.001Z,22.68
2023-05-19T08:53:58.485Z,22.47
2023-05-19T08:56:24.980Z,22.69
2023-05-19T08:58:51.450Z,22.98
2023-05-19T09:01:20.855Z,23.02
2023-05-19T09:03:47.569Z,23.09
2023-05-19T09:06:14.196Z,23.08
2023-05-19T09:08:40.685Z,22.98
2023-05-19T09:11:07.179Z,22.99
2023-05-19T09:13:33.731Z,22.83
2023-05-19T09:16:00.364Z,22.91
2023-05-19T09:18:26.939Z,22.88
2023-05-19T09:20:53.459Z,22.71
2023-05-19T09:23:19.952Z,22.68
2023-05-19T09:25:46.492Z,22.46
2023-05-19T09:28:13.069Z,22.56
2023-05-19T09:30:39.621Z,22.52
2023-05-19T09:33:08.873Z,22.75
2023-05-19T09:35:35.626Z,22.53
2023-05-19T09:38:02.198Z,22.49
2023-05-19T09:40:28.772Z,22.50
2023-05-19T09:42:55.264Z,22.67
2023-05-19T09:45:21.793Z,22.81
2023-05-19T09:47:48.358Z,22.60
2023-05-19T09:50:15.002Z,22.51
2023-05-19T09:52:41.511Z,22.46
2023-05-19T09:55:08.053Z,22.75
2023-05-19T09:57:34.553Z,22.45
2023-05-19T10:00:01.072Z,22.61
2023-05-19T10:02:27.596Z,22.95
2023-05-19T10:04:54.167Z,22.85
2023-05-19T10:07:20.771Z,22.56
2023-05-19T10:09:47.301Z,22.84
2023-05-19T10:12:13.822Z,22.78
2023-05-19T10:14:40.372Z,22.87
2023-05-19T10:17:06.898Z,22.70
2023-05-19T10:19:33.513Z,22.81
2023-05-19T10:22:00.120Z,22.71
2023-05-19T10:24:26.627Z,23.11
2023-05-19T10:26:53.180Z,23.38
2023-05-19T10:29:19.790Z,23.39
2023-05-19T10:31:46.414Z,23.50
2023-05-19T10:34:12.956Z,23.57
2023-05-19T10:36:39.527Z,23.54
2023-05-19T10:39:06.081Z,23.54
2023-05-19T10:41:32.577Z,23.83
2023-05-19T10:44:02.548Z,23.81
2023-05-19T10:46:29.134Z,23.81
2023-05-19T10:48:55.694Z,23.76
2023-05-19T10:51:22.187Z,23.72
2023-05-19T10:53:48.767Z,23.74
2023-05-19T10:56:15.344Z,23.85
2023-05-19T10:58:41.905Z,23.75
2023-05-19T11:01:08.493Z,23.83
2023-05-19T11:03:35.021Z,23.82
2023-05-19T11:06:01.556Z,23.89
2023-05-19T11:08:28.147Z,23.86
2023-05-19T11:10:54.653Z,24.08
2023-05-19T11:13:26.140Z,24.00
2023-05-19T11:15:52.715Z,24.12
2023-05-19T11:18:19.247Z,24.08
2023-05-19T11:20:45.804Z,24.04
2023-05-19T11:23:12.307Z,24.09
2023-05-19T11:25:38.818Z,24.19
2023-05-19T11:28:05.412Z,24.17
2023-05-19T11:30:31.909Z,24.10
2023-05-19T11:32:58.605Z,24.16
2023-05-19T11:35:25.148Z,24.26
2023-05-19T11:37:51.649Z,24.14
2023-05-19T11:40:18.229Z,24.30
2023-05-19T11:42:44.717Z,24.36
2023-05-19T11:45:11.259Z,24.28
2023-05-19T11:47:50.737Z,24.39
2023-05-19T11:50:18.498Z,24.44
2023-05-19T11:52:45.027Z,24.46
2023-05-19T11:55:11.569Z,24.48
2023-05-19T11:57:38.100Z,24.50
2023-05-19T12:00:04.634Z,24.48
2023-05-19T12:02:31.299Z,24.51
2023-05-19T12:04:57.940Z,24.44
2023-05-19T12:07:24.530Z,24.49
2023-05-19T12:09:51.014Z,24.51
2023-05-19T12:12:17.479Z,24.52
2023-05-19T12:14:44.029Z,24.49
2023-05-19T12:17:10.593Z,24.52
2023-05-19T12:19:37.198Z,24.67
2023-05-19T12:22:04.168Z,24.74
2023-05-19T12:24:30.702Z,24.65
2023-05-19T12:26:57.237Z,24.70
2023-05-19T12:29:23.918Z,24.71
2023-05-19T12:31:50.526Z,24.70
2023-05-19T12:34:17.096Z,24.74
2023-05-19T12:36:43.557Z,24.77
2023-05-19T12:39:10.017Z,24.74
2023-05-19T12:41:36.544Z,24.76
2023-05-19T12:44:03.034Z,24.83
2023-05-19T12:46:29.553Z,24.76
2023-05-19T12:48:56.144Z,24.89
2023-05-19T12:51:22.630Z,24.92
2023-05-19T12:53:49.751Z,24.85
2023-05-19T12:56:19.262Z,24.84
2023-05-19T12:58:45.817Z,24.86
2023-05-19T13:01:12.575Z,24.82
2023-05-19T13:03:39.382Z,24.85
2023-05-19T13:06:05.992Z,24.89
2023-05-19T13:08:32.527Z,24.92
2023-05-19T13:10:59.097Z,25.00
2023-05-19T13:13:25.575Z,24.93
2023-05-19T13:15:52.040Z,24.78
2023-05-19T13:18:18.615Z,24.85
2023-05-19T13:20:45.167Z,24.92
2023-05-19T13:23:11.714Z,24.92
2023-05-19T13:25:38.217Z,24.90
2023-05-19T13:28:04.739Z,24.90
2023-05-19T13:30:31.194Z,24.91
2023-05-19T13:32:57.798Z,24.98
2023-05-19T13:35:24.403Z,24.90
2023-05-19T13:37:50.988Z,24.96
2023-05-19T13:40:17.443Z,24.93
2023-05-19T13:42:44.052Z,24.98
2023-05-19T13:45:10.589Z,25.07
2023-05-19T13:47:37.084Z,25.02
2023-05-19T13:50:03.545Z,25.13
2023-05-19T13:52:30.634Z,25.15
2023-05-19T13:54:57.192Z,25.26
2023-05-19T13:57:23.650Z,25.19
2023-05-19T14:00:01.786Z,25.16
2023-05-19T14:02:30.472Z,25.17
2023-05-19T14:04:57.340Z,25.25
2023-05-19T14:07:23.897Z,25.30
2023-05-19T14:09:50.448Z,25.20
2023-05-19T14:12:17.129Z,25.29
2023-05-19T14:14:43.712Z,25.25
2023-05-19T14:17:10.184Z,25.27
2023-05-19T14:19:36.702Z,25.23
2023-05-19T14:22:03.161Z,25.27
2023-05-19T14:24:29.686Z,25.28
2023-05-19T14:26:56.187Z,25.25
2023-05-19T14:29:22.842Z,25.24
2023-05-19T14:31:49.438Z,25.21
2023-05-19T14:34:16.047Z,25.16
2023-05-19T14:36:42.548Z,25.13
2023-05-19T14:39:09.071Z,25.20
2023-05-19T14:41:35.583Z,25.18
2023-05-19T14:44:02.083Z,25.12
2023-05-19T14:46:28.690Z,25.08
2023-05-19T14:48:55.387Z,25.02
2023-05-19T14:51:21.906Z,24.96
2023-05-19T14:53:48.458Z,24.99
2023-05-19T14:56:15.060Z,24.98
2023-05-19T14:58:41.607Z,24.94
2023-05-19T15:01:08.212Z,24.94
2023-05-19T15:03:34.802Z,24.90
2023-05-19T15:06:01.390Z,24.80
2023-05-19T15:08:27.979Z,24.85
2023-05-19T15:10:54.538Z,24.85
2023-05-19T15:13:21.073Z,25.02
2023-05-19T15:15:47.657Z,24.88
2023-05-19T15:18:14.252Z,24.83
2023-05-19T15:20:40.860Z,24.79
2023-05-19T15:23:07.470Z,24.71
2023-05-19T15:25:34.042Z,24.69
2023-05-19T15:28:00.562Z,24.66
2023-05-19T15:30:27.045Z,24.67
2023-05-19T15:32:55.223Z,24.68
2023-05-19T15:35:22.024Z,24.64
2023-05-19T15:37:48.524Z,24.65
2023-05-19T15:40:15.056Z,24.59
2023-05-19T15:42:41.614Z,24.53
2023-05-19T15:45:08.259Z,24.53
2023-05-19T15:47:34.970Z,24.50
2023-05-19T15:50:01.657Z,24.39
2023-05-19T15:52:28.230Z,24.40
2023-05-19T15:54:57.815Z,24.37
2023-05-19T15:57:24.305Z,24.35
2023-05-19T15:59:50.866Z,24.39
2023-05-19T16:02:18.237Z,24.33
2023-05-19T16:04:44.761Z,24.31
2023-05-19T16:07:11.428Z,24.37
2023-05-19T16:09:38.061Z,24.33
2023-05-19T16:12:04.650Z,24.42
2023-05-19T16:14:31.292Z,24.38
2023-05-19T16:16:57.883Z,24.39
2023-05-19T16:19:24.416Z,24.42
2023-05-19T16:21:50.930Z,24.37
2023-05-19T16:24:17.463Z,24.41
2023-05-19T16:26:43.955Z,24.37
2023-05-19T16:29:10.495Z,24.29
2023-05-19T16:31:37.103Z,24.32
2023-05-19T16:34:03.700Z,24.34
2023-05-19T16:36:30.270Z,24.29
2023-05-19T16:38:56.811Z,24.33
2023-05-19T16:41:23.306Z,24.33
2023-05-19T16:43:49.834Z,24.31
2023-05-19T16:46:16.412Z,24.14
2023-05-19T16:48:43.076Z,24.32
2023-05-19T16:51:09.657Z,24.29
2023-05-19T16:53:36.243Z,24.11
2023-05-19T16:56:02.834Z,24.02
2023-05-19T16:58:30.847Z,24.15
2023-05-19T17:00:57.648Z,24.12
2023-05-19T17:03:24.307Z,24.18
2023-05-19T17:05:50.999Z,24.08
2023-05-19T17:08:17.561Z,24.15
2023-05-19T17:10:44.062Z,24.23
2023-05-19T17:13:10.593Z,24.23
2023-05-19T17:15:37.159Z,23.99
2023-05-19T17:18:03.744Z,23.99
2023-05-19T17:20:30.285Z,23.88
2023-05-19T17:22:56.773Z,23.95
2023-05-19T17:25:26.148Z,23.88
2023-05-19T17:27:53.008Z,24.09
2023-05-19T17:30:19.625Z,24.11
2023-05-19T17:32:46.337Z,23.98
2023-05-19T17:35:12.986Z,24.13
2023-05-19T17:37:39.540Z,24.07
2023-05-19T17:40:06.092Z,24.02
2023-05-19T17:42:33.089Z,24.05
2023-05-19T17:44:59.663Z,24.02
2023-05-19T17:47:26.285Z,23.99
2023-05-19T17:49:52.830Z,23.99
2023-05-19T17:52:19.396Z,23.92
2023-05-19T17:54:45.937Z,23.96
2023-05-19T17:57:12.503Z,23.93
2023-05-19T17:59:38.975Z,23.86
2023-05-19T18:02:05.590Z,23.71
2023-05-19T18:04:32.156Z,23.63
2023-05-19T18:06:58.731Z,23.58
2023-05-19T18:09:27.918Z,23.59
2023-05-19T18:11:55.372Z,23.49
2023-05-19T18:14:22.039Z,23.56
2023-05-19T18:16:48.743Z,23.51
2023-05-19T18:19:15.375Z,23.45
2023-05-19T18:21:41.991Z,23.50
2023-05-19T18:24:08.550Z,23.37
2023-05-19T18:26:35.063Z,23.36
2023-05-19T18:29:01.672Z,23.37
2023-05-19T18:31:28.308Z,23.41
2023-05-19T18:33:54.846Z,23.41
2023-05-19T18:36:21.610Z,23.40
2023-05-19T18:38:48.188Z,23.38
2023-05-19T18:41:14.816Z,23.45
2023-05-19T18:43:41.334Z,23.44
2023-05-19T18:46:07.927Z,23.38
2023-05-19T18:48:34.424Z,23.43
2023-05-19T18:51:00.995Z,23.37
2023-05-19T18:53:27.500Z,23.38
2023-05-19T18:55:54.029Z,23.35
2023-05-19T18:58:20.555Z,23.45
2023-05-19T19:00:47.119Z,23.37
2023-05-19T19:03:13.712Z,23.32
2023-05-19T19:05:40.296Z,23.40
2023-05-19T19:08:06.860Z,23.35
2023-05-19T19:10:33.683Z,23.36
2023-05-19T19:13:00.369Z,23.38
2023-05-19T19:15:26.889Z,23.40
2023-05-19T19:17:53.565Z,23.35
2023-05-19T19:20:20.033Z,23.34
2023-05-19T19:22:46.608Z,23.38
2023-05-19T19:25:13.182Z,23.33
2023-05-19T19:27:39.718Z,23.37
2023-05-19T19:30:06.264Z,23.31
2023-05-19T19:32:32.825Z,23.27
2023-05-19T19:34:59.460Z,23.34
2023-05-19T19:37:26.001Z,23.30
2023-05-19T19:39:52.562Z,23.28
2023-05-19T19:42:19.136Z,23.33
2023-05-19T19:44:45.754Z,23.33
2023-05-19T19:47:12.298Z,23.30
2023-05-19T19:49:38.839Z,23.32
2023-05-19T19:52:05.432Z,23.33
2023-05-19T19:54:31.953Z,23.28
2023-05-19T19:56:58.466Z,23.35
2023-05-19T19:59:25.278Z,23.37
2023-05-19T20:01:52.814Z,23.34
2023-05-19T20:04:19.559Z,23.27
2023-05-19T20:06:46.119Z,23.26
2023-05-19T20:09:12.625Z,23.28
2023-05-19T20:14:05.659Z,23.28
2023-05-19T20:16:32.291Z,23.34
2023-05-19T20:18:58.952Z,23.27
2023-05-19T20:21:25.481Z,23.28
2023-05-19T20:23:52.052Z,23.23
2023-05-19T20:26:18.537Z,23.32
2023-05-19T20:28:45.136Z,23.31
2023-05-19T20:31:11.787Z,23.35
2023-05-19T20:33:38.404Z,23.41
2023-05-19T20:36:05.063Z,23.34
2023-05-19T20:38:31.662Z,23.41
2023-05-19T20:40:58.302Z,23.27
2023-05-19T20:43:24.863Z,23.32
2023-05-19T20:45:51.581Z,23.33
2023-05-19T20:48:18.283Z,23.30
2023-05-19T20:50:45.003Z,23.35
2023-05-19T20:53:11.592Z,23.38
2023-05-19T20:55:38.112Z,23.45
2023-05-19T20:58:04.764Z,23.35
2023-05-19T21:00:31.316Z,23.40
2023-05-19T21:02:58.135Z,23.37
2023-05-19T21:05:24.785Z,23.40
2023-05-19T21:07:51.381Z,23.36
2023-05-19T21:10:18.060Z,23.38
2023-05-19T21:12:44.702Z,23.32
2023-05-19T21:15:11.222Z,23.32
2023-05-19T21:17:37.864Z,23.41
2023-05-19T21:20:04.610Z,23.37
2023-05-19T21:22:31.217Z,23.35
2023-05-19T21:24:57.780Z,23.34
2023-05-19T21:27:24.348Z,23.33
2023-05-19T21:29:50.980Z,23.35
2023-05-19T21:32:17.535Z,23.37
2023-05-19T21:34:44.128Z,23.34
2023-05-19T21:37:10.740Z,23.35
2023-05-19T21:39:37.288Z,23.37
2023-05-19T21:42:03.930Z,23.28
2023-05-19T21:44:30.567Z,23.26
2023-05-19T21:46:57.220Z,23.36
2023-05-19T21:49:23.986Z,23.32
2023-05-19T21:51:50.572Z,23.39
2023-05-19T21:54:17.179Z,23.24
2023-05-19T21:56:43.718Z,23.34
2023-05-19T21:59:10.271Z,23.33
2023-05-19T22:01:36.852Z,23.34
2023-05-19T22:04:03.560Z,23.37
2023-05-19T22:06:30.168Z,23.33
2023-05-19T22:08:56.757Z,23.30
2023-05-19T22:11:23.308Z,23.35
2023-05-19T22:13:49.934Z,23.30
2023-05-19T22:16:16.663Z,23.23
2023-05-19T22:18:43.270Z,23.26
2023-05-19T22:21:09.812Z,23.28
2023-05-19T22:23:36.374Z,23.24
2023-05-19T22:26:02.946Z,23.32
2023-05-19T22:28:29.515Z,23.30
2023-05-19T22:30:56.141Z,23.27
2023-05-19T22:33:22.769Z,23.28
2023-05-19T22:35:49.411Z,23.33
2023-05-19T22:38:16.030Z,23.32
2023-05-19T22:40:42.500Z,23.36
2023-05-19T22:43:11.831Z,23.33
2023-05-19T22:45:38.675Z,23.28
2023-05-19T22:48:05.527Z,23.30
2023-05-19T22:50:32.155Z,23.28
2023-05-19T22:52:58.783Z,23.23
2023-05-19T22:55:25.327Z,23.22
2023-05-19T22:57:51.915Z,23.25
2023-05-19T23:00:18.444Z,23.27
2023-05-19T23:02:45.095Z,23.25
2023-05-19T23:05:11.633Z,23.27
2023-05-19T23:07:38.285Z,23.25
2023-05-19T23:10:04.933Z,23.25
2023-05-19T23:12:31.551Z,23.24
2023-05-19T23:14:58.082Z,23.28
2023-05-19T23:17:24.745Z,23.26
2023-05-19T23:19:51.327Z,23.27
2023-05-19T23:22:17.859Z,23.27
2023-05-19T23:24:44.423Z,23.27
2023-05-19T23:27:10.944Z,23.26
2023-05-19T23:29:37.519Z,23.27
2023-05-19T23:32:04.101Z,23.27
2023-05-19T23:34:30.697Z,23.26
2023-05-19T23:36:57.312Z,23.22
2023-05-19T23:39:23.844Z,23.17
2023-05-19T23:41:50.362Z,23.21
2023-05-19T23:44:16.909Z,23.20
2023-05-19T23:46:43.670Z,23.18
2023-05-19T23:49:10.289Z,23.19
2023-05-19T23:51:36.866Z,23.19
2023-05-19T23:54:03.367Z,23.24
2023-05-19T23:56:29.960Z,23.28
2023-05-19T23:58:56.568Z,23.23
